sensor_id;sensor_type;location;lat;lon;timestamp;pressure;altitude;pressure_sealevel;temperature;humidity
51829;BME280;37881;48.024;8.774;2022-10-16T00:00:46;93883.97;;;11.03;nan
51829;BME280;37881;48.024;8.774;2022-10-16T00:03:13;93889.84;;;11.05;nan
51829;BME280;37881;48.024;8.774;2022-10-16T00:05:41;93886.38;;;11.00;nan
51829;BME280;37881;48.024;8.774;2022-10-16T00:08:11;93875.47;;;10.97;nan
51829;BME280;37881;48.024;8.774;2022-10-16T00:10:38;93882.13;;;11.19;nan
51829;BME280;37881;48.024;8.774;2022-10-16T00:13:05;93877.28;;;11.27;nan
51829;BME280;37881;48.024;8.774;2022-10-16T00:15:34;93882.97;;;11.16;nan
51829;BME280;37881;48.024;8.774;2022-10-16T00:18:05;93887.31;;;11.14;nan
51829;BME280;37881;48.024;8.774;2022-10-16T00:20:35;93884.16;;;11.15;nan
51829;BME280;37881;48.024;8.774;2022-10-16T00:23:04;93881.97;;;11.27;nan
51829;BME280;37881;48.024;8.774;2022-10-16T00:25:32;93886.06;;;11.18;nan
51829;BME280;37881;48.024;8.774;2022-10-16T00:28:02;93888.75;;;11.22;nan
51829;BME280;37881;48.024;8.774;2022-10-16T00:30:29;93888.22;;;11.31;nan
51829;BME280;37881;48.024;8.774;2022-10-16T00:32:56;93895.59;;;11.34;nan
51829;BME280;37881;48.024;8.774;2022-10-16T00:35:23;93894.34;;;11.38;nan
51829;BME280;37881;48.024;8.774;2022-10-16T00:37:50;93893.09;;;11.43;nan
51829;BME280;37881;48.024;8.774;2022-10-16T00:40:17;93897.00;;;11.42;nan
51829;BME280;37881;48.024;8.774;2022-10-16T00:42:44;93888.78;;;11.42;nan
51829;BME280;37881;48.024;8.774;2022-10-16T00:45:10;93888.28;;;11.47;nan
51829;BME280;37881;48.024;8.774;2022-10-16T00:47:42;93879.13;;;11.54;nan
51829;BME280;37881;48.024;8.774;2022-10-16T00:50:25;93897.78;;;11.43;nan
51829;BME280;37881;48.024;8.774;2022-10-16T00:52:54;93895.84;;;11.43;nan
51829;BME280;37881;48.024;8.774;2022-10-16T00:55:22;93894.97;;;11.46;nan
51829;BME280;37881;48.024;8.774;2022-10-16T00:57:49;93899.69;;;11.46;nan
51829;BME280;37881;48.024;8.774;2022-10-16T01:00:25;93899.63;;;11.49;nan
51829;BME280;37881;48.024;8.774;2022-10-16T01:02:57;93894.06;;;11.53;nan
51829;BME280;37881;48.024;8.774;2022-10-16T01:05:39;93900.63;;;11.59;nan
51829;BME280;37881;48.024;8.774;2022-10-16T01:08:14;93902.59;;;11.58;nan
51829;BME280;37881;48.024;8.774;2022-10-16T01:10:58;93902.47;;;11.66;nan
51829;BME280;37881;48.024;8.774;2022-10-16T01:13:35;93890.81;;;11.58;nan
51829;BME280;37881;48.024;8.774;2022-10-16T01:16:05;93906.03;;;11.63;nan
51829;BME280;37881;48.024;8.774;2022-10-16T01:18:39;93903.75;;;11.61;nan
51829;BME280;37881;48.024;8.774;2022-10-16T01:21:16;93903.38;;;11.59;nan
51829;BME280;37881;48.024;8.774;2022-10-16T01:29:08;93913.94;;;11.60;nan
51829;BME280;37881;48.024;8.774;2022-10-16T01:31:38;93913.88;;;11.64;nan
51829;BME280;37881;48.024;8.774;2022-10-16T01:34:12;93915.56;;;11.58;nan
51829;BME280;37881;48.024;8.774;2022-10-16T01:36:42;93921.88;;;11.55;nan
51829;BME280;37881;48.024;8.774;2022-10-16T01:39:11;93929.88;;;11.49;nan
51829;BME280;37881;48.024;8.774;2022-10-16T01:41:43;93932.19;;;11.51;nan
51829;BME280;37881;48.024;8.774;2022-10-16T01:44:17;93929.78;;;11.53;nan
51829;BME280;37881;48.024;8.774;2022-10-16T01:46:48;93923.03;;;11.57;nan
51829;BME280;37881;48.024;8.774;2022-10-16T01:49:17;93922.13;;;11.64;nan
51829;BME280;37881;48.024;8.774;2022-10-16T01:51:47;93916.22;;;11.66;nan
51829;BME280;37881;48.024;8.774;2022-10-16T01:54:16;93925.22;;;11.66;nan
51829;BME280;37881;48.024;8.774;2022-10-16T01:56:47;93920.22;;;11.61;nan
51829;BME280;37881;48.024;8.774;2022-10-16T01:59:18;93922.13;;;11.64;nan
51829;BME280;37881;48.024;8.774;2022-10-16T02:01:53;93916.63;;;11.64;nan
51829;BME280;37881;48.024;8.774;2022-10-16T02:04:26;93910.53;;;11.53;nan
51829;BME280;37881;48.024;8.774;2022-10-16T02:06:54;93922.81;;;11.48;nan
51829;BME280;37881;48.024;8.774;2022-10-16T02:09:21;93916.91;;;11.50;nan
51829;BME280;37881;48.024;8.774;2022-10-16T02:11:50;93915.63;;;11.54;nan
51829;BME280;37881;48.024;8.774;2022-10-16T02:14:20;93909.72;;;11.56;nan
51829;BME280;37881;48.024;8.774;2022-10-16T02:16:48;93919.88;;;11.59;nan
51829;BME280;37881;48.024;8.774;2022-10-16T02:19:17;93920.00;;;11.52;nan
51829;BME280;37881;48.024;8.774;2022-10-16T02:21:56;93922.31;;;11.33;nan
51829;BME280;37881;48.024;8.774;2022-10-16T02:24:31;93912.09;;;11.34;nan
51829;BME280;37881;48.024;8.774;2022-10-16T02:29:26;93917.94;;;11.36;nan
51829;BME280;37881;48.024;8.774;2022-10-16T02:31:58;93906.53;;;11.37;nan
51829;BME280;37881;48.024;8.774;2022-10-16T02:34:27;93903.63;;;11.45;nan
51829;BME280;37881;48.024;8.774;2022-10-16T02:36:58;93903.72;;;11.41;nan
51829;BME280;37881;48.024;8.774;2022-10-16T02:39:28;93898.41;;;11.30;nan
51829;BME280;37881;48.024;8.774;2022-10-16T02:41:55;93908.16;;;11.35;nan
51829;BME280;37881;48.024;8.774;2022-10-16T02:44:22;93898.59;;;11.43;nan
51829;BME280;37881;48.024;8.774;2022-10-16T02:46:49;93900.47;;;11.46;nan
51829;BME280;37881;48.024;8.774;2022-10-16T02:49:15;93898.94;;;11.45;nan
51829;BME280;37881;48.024;8.774;2022-10-16T02:51:42;93907.72;;;11.36;nan
51829;BME280;37881;48.024;8.774;2022-10-16T02:54:09;93923.31;;;11.43;nan
51829;BME280;37881;48.024;8.774;2022-10-16T02:56:36;93916.97;;;11.46;nan
51829;BME280;37881;48.024;8.774;2022-10-16T02:59:03;93925.56;;;11.48;nan
51829;BME280;37881;48.024;8.774;2022-10-16T03:01:29;93928.97;;;11.32;nan
51829;BME280;37881;48.024;8.774;2022-10-16T03:03:56;93936.50;;;11.28;nan
51829;BME280;37881;48.024;8.774;2022-10-16T03:06:23;93934.19;;;11.27;nan
51829;BME280;37881;48.024;8.774;2022-10-16T03:08:50;93936.16;;;11.26;nan
51829;BME280;37881;48.024;8.774;2022-10-16T03:11:16;93938.53;;;11.24;nan
51829;BME280;37881;48.024;8.774;2022-10-16T03:13:43;93928.28;;;11.28;nan
51829;BME280;37881;48.024;8.774;2022-10-16T03:16:10;93931.88;;;11.25;nan
51829;BME280;37881;48.024;8.774;2022-10-16T03:18:37;93920.44;;;11.27;nan
51829;BME280;37881;48.024;8.774;2022-10-16T03:21:04;93926.38;;;11.25;nan
51829;BME280;37881;48.024;8.774;2022-10-16T03:23:30;93925.81;;;11.34;nan
51829;BME280;37881;48.024;8.774;2022-10-16T03:25:57;93919.91;;;11.35;nan
51829;BME280;37881;48.024;8.774;2022-10-16T03:28:24;93926.22;;;11.32;nan
51829;BME280;37881;48.024;8.774;2022-10-16T03:30:51;93930.31;;;11.24;nan
51829;BME280;37881;48.024;8.774;2022-10-16T03:33:17;93932.03;;;11.14;nan
51829;BME280;37881;48.024;8.774;2022-10-16T03:35:51;93931.47;;;11.03;nan
51829;BME280;37881;48.024;8.774;2022-10-16T03:38:19;93929.22;;;10.94;nan
51829;BME280;37881;48.024;8.774;2022-10-16T03:40:46;93937.25;;;10.85;nan
51829;BME280;37881;48.024;8.774;2022-10-16T03:43:13;93941.16;;;10.84;nan
51829;BME280;37881;48.024;8.774;2022-10-16T03:45:40;93949.00;;;10.86;nan
51829;BME280;37881;48.024;8.774;2022-10-16T03:48:07;93945.94;;;10.80;nan
51829;BME280;37881;48.024;8.774;2022-10-16T03:50:34;93944.59;;;10.92;nan
51829;BME280;37881;48.024;8.774;2022-10-16T03:53:01;93940.22;;;10.94;nan
51829;BME280;37881;48.024;8.774;2022-10-16T03:55:28;93943.50;;;10.86;nan
51829;BME280;37881;48.024;8.774;2022-10-16T03:57:54;93935.94;;;10.93;nan
51829;BME280;37881;48.024;8.774;2022-10-16T04:00:21;93934.63;;;11.02;nan
51829;BME280;37881;48.024;8.774;2022-10-16T04:02:48;93936.81;;;11.10;nan
51829;BME280;37881;48.024;8.774;2022-10-16T04:05:15;93940.78;;;11.09;nan
51829;BME280;37881;48.024;8.774;2022-10-16T04:07:41;93942.16;;;10.97;nan
51829;BME280;37881;48.024;8.774;2022-10-16T04:10:08;93932.47;;;10.89;nan
51829;BME280;37881;48.024;8.774;2022-10-16T04:12:35;93942.69;;;10.89;nan
51829;BME280;37881;48.024;8.774;2022-10-16T04:15:03;93933.78;;;10.81;nan
51829;BME280;37881;48.024;8.774;2022-10-16T04:17:29;93935.81;;;10.77;nan
51829;BME280;37881;48.024;8.774;2022-10-16T04:19:56;93923.38;;;10.69;nan
51829;BME280;37881;48.024;8.774;2022-10-16T04:22:23;93934.91;;;10.84;nan
51829;BME280;37881;48.024;8.774;2022-10-16T04:24:49;93936.75;;;10.90;nan
51829;BME280;37881;48.024;8.774;2022-10-16T04:27:17;93938.28;;;10.95;nan
51829;BME280;37881;48.024;8.774;2022-10-16T04:29:43;93941.53;;;10.86;nan
51829;BME280;37881;48.024;8.774;2022-10-16T04:32:10;93943.50;;;10.86;nan
51829;BME280;37881;48.024;8.774;2022-10-16T04:34:39;93945.84;;;10.87;nan
51829;BME280;37881;48.024;8.774;2022-10-16T04:37:06;93941.00;;;10.95;nan
51829;BME280;37881;48.024;8.774;2022-10-16T04:39:33;93948.63;;;10.84;nan
51829;BME280;37881;48.024;8.774;2022-10-16T04:42:00;93954.38;;;10.93;nan
51829;BME280;37881;48.024;8.774;2022-10-16T04:44:26;93949.31;;;10.91;nan
51829;BME280;37881;48.024;8.774;2022-10-16T04:46:53;93946.91;;;10.93;nan
51829;BME280;37881;48.024;8.774;2022-10-16T04:49:20;93952.16;;;10.84;nan
51829;BME280;37881;48.024;8.774;2022-10-16T04:51:47;93946.25;;;10.86;nan
51829;BME280;37881;48.024;8.774;2022-10-16T04:54:14;93945.00;;;10.90;nan
51829;BME280;37881;48.024;8.774;2022-10-16T04:56:40;93952.75;;;10.95;nan
51829;BME280;37881;48.024;8.774;2022-10-16T04:59:14;93951.88;;;11.02;nan
51829;BME280;37881;48.024;8.774;2022-10-16T05:01:41;93953.78;;;11.05;nan
51829;BME280;37881;48.024;8.774;2022-10-16T05:04:08;93955.09;;;10.97;nan
51829;BME280;37881;48.024;8.774;2022-10-16T05:06:36;93969.00;;;11.10;nan
51829;BME280;37881;48.024;8.774;2022-10-16T05:09:03;93965.00;;;11.14;nan
51829;BME280;37881;48.024;8.774;2022-10-16T05:11:29;93964.28;;;11.10;nan
51829;BME280;37881;48.024;8.774;2022-10-16T05:13:56;93965.94;;;11.04;nan
51829;BME280;37881;48.024;8.774;2022-10-16T05:16:23;93971.81;;;11.06;nan
51829;BME280;37881;48.024;8.774;2022-10-16T05:18:51;93957.72;;;11.04;nan
51829;BME280;37881;48.024;8.774;2022-10-16T05:21:19;93963.25;;;11.00;nan
51829;BME280;37881;48.024;8.774;2022-10-16T05:23:46;93963.63;;;11.03;nan
51829;BME280;37881;48.024;8.774;2022-10-16T05:26:13;93967.88;;;11.07;nan
51829;BME280;37881;48.024;8.774;2022-10-16T05:28:40;93959.50;;;11.14;nan
51829;BME280;37881;48.024;8.774;2022-10-16T05:31:08;93970.78;;;11.20;nan
51829;BME280;37881;48.024;8.774;2022-10-16T05:33:35;93966.44;;;11.23;nan
51829;BME280;37881;48.024;8.774;2022-10-16T05:36:04;93966.44;;;11.23;nan
51829;BME280;37881;48.024;8.774;2022-10-16T05:38:31;93969.38;;;11.12;nan
51829;BME280;37881;48.024;8.774;2022-10-16T05:40:57;93961.47;;;11.14;nan
51829;BME280;37881;48.024;8.774;2022-10-16T05:43:26;93963.31;;;11.20;nan
51829;BME280;37881;48.024;8.774;2022-10-16T05:46:06;93961.25;;;11.28;nan
51829;BME280;37881;48.024;8.774;2022-10-16T05:48:32;93962.81;;;11.29;nan
51829;BME280;37881;48.024;8.774;2022-10-16T05:51:04;93966.25;;;11.33;nan
51829;BME280;37881;48.024;8.774;2022-10-16T05:53:34;93970.19;;;11.32;nan
51829;BME280;37881;48.024;8.774;2022-10-16T05:56:03;93972.84;;;11.39;nan
51829;BME280;37881;48.024;8.774;2022-10-16T05:58:34;93974.31;;;11.44;nan
51829;BME280;37881;48.024;8.774;2022-10-16T06:01:04;93980.31;;;11.39;nan
51829;BME280;37881;48.024;8.774;2022-10-16T06:03:31;93976.03;;;11.34;nan
51829;BME280;37881;48.024;8.774;2022-10-16T06:05:59;93983.81;;;11.39;nan
51829;BME280;37881;48.024;8.774;2022-10-16T06:08:25;93985.31;;;11.44;nan
51829;BME280;37881;48.024;8.774;2022-10-16T06:11:03;93989.88;;;11.51;nan
51829;BME280;37881;48.024;8.774;2022-10-16T06:13:30;93992.16;;;11.56;nan
51829;BME280;37881;48.024;8.774;2022-10-16T06:15:58;93997.91;;;11.65;nan
51829;BME280;37881;48.024;8.774;2022-10-16T06:18:26;93999.75;;;11.72;nan
51829;BME280;37881;48.024;8.774;2022-10-16T06:20:54;94003.91;;;11.80;nan
51829;BME280;37881;48.024;8.774;2022-10-16T06:23:22;94008.56;;;11.83;nan
51829;BME280;37881;48.024;8.774;2022-10-16T06:25:49;94012.41;;;11.89;nan
51829;BME280;37881;48.024;8.774;2022-10-16T06:28:16;94018.97;;;11.95;nan
51829;BME280;37881;48.024;8.774;2022-10-16T06:30:43;94017.59;;;11.84;nan
51829;BME280;37881;48.024;8.774;2022-10-16T06:33:12;94015.31;;;11.78;nan
51829;BME280;37881;48.024;8.774;2022-10-16T06:35:39;94018.69;;;11.90;nan
51829;BME280;37881;48.024;8.774;2022-10-16T06:38:06;94016.09;;;12.03;nan
51829;BME280;37881;48.024;8.774;2022-10-16T06:40:33;94026.63;;;11.84;nan
51829;BME280;37881;48.024;8.774;2022-10-16T06:43:00;94026.25;;;11.82;nan
51829;BME280;37881;48.024;8.774;2022-10-16T06:45:26;94036.91;;;12.04;nan
51829;BME280;37881;48.024;8.774;2022-10-16T06:47:53;94037.53;;;12.31;nan
51829;BME280;37881;48.024;8.774;2022-10-16T06:50:20;94042.59;;;12.13;nan
51829;BME280;37881;48.024;8.774;2022-10-16T06:52:47;94038.88;;;11.79;nan
51829;BME280;37881;48.024;8.774;2022-10-16T06:55:14;94033.56;;;11.69;nan
51829;BME280;37881;48.024;8.774;2022-10-16T06:57:41;94051.06;;;11.78;nan
51829;BME280;37881;48.024;8.774;2022-10-16T07:00:08;94047.91;;;11.80;nan
51829;BME280;37881;48.024;8.774;2022-10-16T07:02:35;94054.28;;;11.97;nan
51829;BME280;37881;48.024;8.774;2022-10-16T07:05:02;94053.25;;;12.11;nan
51829;BME280;37881;48.024;8.774;2022-10-16T07:07:29;94059.00;;;12.20;nan
51829;BME280;37881;48.024;8.774;2022-10-16T07:09:56;94061.81;;;12.36;nan
51829;BME280;37881;48.024;8.774;2022-10-16T07:12:22;94068.94;;;12.54;nan
51829;BME280;37881;48.024;8.774;2022-10-16T07:14:49;94073.16;;;12.58;nan
51829;BME280;37881;48.024;8.774;2022-10-16T07:17:18;94075.84;;;12.42;nan
51829;BME280;37881;48.024;8.774;2022-10-16T07:19:45;94088.50;;;12.39;nan
51829;BME280;37881;48.024;8.774;2022-10-16T07:22:12;94085.09;;;12.52;nan
51829;BME280;37881;48.024;8.774;2022-10-16T07:24:39;94097.72;;;12.69;nan
51829;BME280;37881;48.024;8.774;2022-10-16T07:27:05;94091.94;;;12.64;nan
51829;BME280;37881;48.024;8.774;2022-10-16T07:29:32;94102.03;;;12.90;nan
51829;BME280;37881;48.024;8.774;2022-10-16T07:31:59;94103.69;;;13.04;nan
51829;BME280;37881;48.024;8.774;2022-10-16T07:34:26;94091.00;;;12.90;nan
51829;BME280;37881;48.024;8.774;2022-10-16T07:36:53;94092.84;;;12.77;nan
51829;BME280;37881;48.024;8.774;2022-10-16T07:39:20;94105.22;;;12.69;nan
51829;BME280;37881;48.024;8.774;2022-10-16T07:41:46;94106.63;;;12.77;nan
51829;BME280;37881;48.024;8.774;2022-10-16T07:44:15;94103.91;;;12.93;nan
51829;BME280;37881;48.024;8.774;2022-10-16T07:46:42;94108.25;;;13.11;nan
51829;BME280;37881;48.024;8.774;2022-10-16T07:49:09;94117.66;;;13.13;nan
51829;BME280;37881;48.024;8.774;2022-10-16T07:51:36;94112.94;;;13.14;nan
51829;BME280;37881;48.024;8.774;2022-10-16T07:54:04;94121.63;;;13.12;nan
51829;BME280;37881;48.024;8.774;2022-10-16T07:56:32;94119.88;;;13.02;nan
51829;BME280;37881;48.024;8.774;2022-10-16T07:58:59;94121.78;;;13.22;nan
51829;BME280;37881;48.024;8.774;2022-10-16T08:01:26;94123.00;;;13.21;nan
51829;BME280;37881;48.024;8.774;2022-10-16T08:03:53;94126.81;;;13.27;nan
51829;BME280;37881;48.024;8.774;2022-10-16T08:06:21;94125.75;;;13.41;nan
51829;BME280;37881;48.024;8.774;2022-10-16T08:08:52;94128.19;;;13.55;nan
51829;BME280;37881;48.024;8.774;2022-10-16T08:11:19;94131.19;;;13.61;nan
51829;BME280;37881;48.024;8.774;2022-10-16T08:13:46;94138.59;;;13.80;nan
51829;BME280;37881;48.024;8.774;2022-10-16T08:16:12;94134.81;;;13.90;nan
51829;BME280;37881;48.024;8.774;2022-10-16T08:18:40;94127.22;;;14.11;nan
51829;BME280;37881;48.024;8.774;2022-10-16T08:21:13;94130.06;;;14.07;nan
51829;BME280;37881;48.024;8.774;2022-10-16T08:23:46;94136.78;;;14.06;nan
51829;BME280;37881;48.024;8.774;2022-10-16T08:26:14;94143.53;;;13.89;nan
51829;BME280;37881;48.024;8.774;2022-10-16T08:28:41;94150.50;;;13.93;nan
51829;BME280;37881;48.024;8.774;2022-10-16T08:31:10;94151.34;;;14.23;nan
51829;BME280;37881;48.024;8.774;2022-10-16T08:33:38;94160.13;;;14.34;nan
51829;BME280;37881;48.024;8.774;2022-10-16T08:36:06;94170.59;;;14.72;nan
51829;BME280;37881;48.024;8.774;2022-10-16T08:38:33;94164.13;;;14.79;nan
51829;BME280;37881;48.024;8.774;2022-10-16T08:50:08;94175.63;;;15.45;nan
51829;BME280;37881;48.024;8.774;2022-10-16T08:52:35;94171.47;;;15.53;nan
51829;BME280;37881;48.024;8.774;2022-10-16T08:55:05;94178.22;;;15.52;nan
51829;BME280;37881;48.024;8.774;2022-10-16T08:57:32;94188.75;;;15.57;nan
51829;BME280;37881;48.024;8.774;2022-10-16T09:00:08;94184.31;;;15.73;nan
51829;BME280;37881;48.024;8.774;2022-10-16T09:02:43;94177.22;;;15.59;nan
51829;BME280;37881;48.024;8.774;2022-10-16T09:08:09;94189.09;;;15.72;nan
51829;BME280;37881;48.024;8.774;2022-10-16T09:10:56;94187.13;;;15.86;nan
51829;BME280;37881;48.024;8.774;2022-10-16T09:13:30;94188.16;;;15.63;nan
51829;BME280;37881;48.024;8.774;2022-10-16T09:16:30;94185.97;;;15.70;nan
51829;BME280;37881;48.024;8.774;2022-10-16T09:19:20;94186.22;;;15.89;nan
51829;BME280;37881;48.024;8.774;2022-10-16T09:21:50;94191.50;;;16.22;nan
51829;BME280;37881;48.024;8.774;2022-10-16T09:24:21;94185.09;;;16.60;nan
51829;BME280;37881;48.024;8.774;2022-10-16T09:26:54;94181.31;;;16.66;nan
51829;BME280;37881;48.024;8.774;2022-10-16T09:29:21;94181.63;;;16.81;nan
51829;BME280;37881;48.024;8.774;2022-10-16T09:31:50;94183.38;;;17.10;nan
51829;BME280;37881;48.024;8.774;2022-10-16T09:36:57;94188.34;;;16.80;nan
51829;BME280;37881;48.024;8.774;2022-10-16T09:39:25;94198.66;;;16.92;nan
51829;BME280;37881;48.024;8.774;2022-10-16T09:41:52;94193.88;;;16.93;nan
51829;BME280;37881;48.024;8.774;2022-10-16T09:44:30;94205.63;;;16.97;nan
51829;BME280;37881;48.024;8.774;2022-10-16T09:47:03;94194.78;;;17.12;nan
51829;BME280;37881;48.024;8.774;2022-10-16T09:49:30;94187.63;;;17.02;nan
51829;BME280;37881;48.024;8.774;2022-10-16T09:52:05;94190.19;;;17.18;nan
51829;BME280;37881;48.024;8.774;2022-10-16T09:54:32;94197.19;;;17.23;nan
51829;BME280;37881;48.024;8.774;2022-10-16T09:57:11;94200.38;;;17.43;nan
51829;BME280;37881;48.024;8.774;2022-10-16T10:00:09;94197.50;;;18.09;nan
51829;BME280;37881;48.024;8.774;2022-10-16T10:02:37;94195.28;;;18.54;nan
51829;BME280;37881;48.024;8.774;2022-10-16T10:05:06;94198.09;;;18.72;nan
51829;BME280;37881;48.024;8.774;2022-10-16T10:07:44;94196.81;;;18.46;nan
51829;BME280;37881;48.024;8.774;2022-10-16T10:10:30;94201.31;;;18.71;nan
51829;BME280;37881;48.024;8.774;2022-10-16T10:12:57;94205.72;;;19.18;nan
51829;BME280;37881;48.024;8.774;2022-10-16T10:15:34;94206.16;;;19.35;nan
51829;BME280;37881;48.024;8.774;2022-10-16T10:18:02;94201.97;;;19.49;nan
51829;BME280;37881;48.024;8.774;2022-10-16T10:20:30;94201.19;;;20.09;nan
51829;BME280;37881;48.024;8.774;2022-10-16T10:23:22;94208.16;;;20.38;nan
51829;BME280;37881;48.024;8.774;2022-10-16T10:33:48;94200.88;;;25.97;nan
51829;BME280;37881;48.024;8.774;2022-10-16T10:36:39;94186.56;;;26.28;nan
51829;BME280;37881;48.024;8.774;2022-10-16T10:39:16;94195.25;;;27.40;nan
51829;BME280;37881;48.024;8.774;2022-10-16T10:47:55;94185.81;;;29.00;nan
51829;BME280;37881;48.024;8.774;2022-10-16T10:53:35;94181.09;;;28.28;nan
51829;BME280;37881;48.024;8.774;2022-10-16T10:56:39;94180.94;;;26.34;nan
51829;BME280;37881;48.024;8.774;2022-10-16T11:07:49;94180.81;;;29.74;nan
51829;BME280;37881;48.024;8.774;2022-10-16T11:10:22;94169.53;;;29.31;nan
51829;BME280;37881;48.024;8.774;2022-10-16T11:12:55;94170.44;;;28.16;nan
51829;BME280;37881;48.024;8.774;2022-10-16T11:15:35;94162.66;;;28.27;nan
51829;BME280;37881;48.024;8.774;2022-10-16T11:18:45;94160.28;;;28.32;nan
51829;BME280;37881;48.024;8.774;2022-10-16T11:21:18;94157.34;;;27.41;nan
51829;BME280;37881;48.024;8.774;2022-10-16T11:24:27;94147.66;;;27.72;nan
51829;BME280;37881;48.024;8.774;2022-10-16T11:27:04;94148.59;;;27.44;nan
51829;BME280;37881;48.024;8.774;2022-10-16T11:29:35;94156.13;;;28.08;nan
51829;BME280;37881;48.024;8.774;2022-10-16T11:32:18;94142.94;;;27.44;nan
51829;BME280;37881;48.024;8.774;2022-10-16T11:34:51;94149.44;;;26.41;nan
51829;BME280;37881;48.024;8.774;2022-10-16T11:37:24;94147.69;;;26.10;nan
51829;BME280;37881;48.024;8.774;2022-10-16T11:39:58;94143.31;;;25.64;nan
51829;BME280;37881;48.024;8.774;2022-10-16T11:42:37;94145.59;;;24.77;nan
51829;BME280;37881;48.024;8.774;2022-10-16T11:50:26;94140.22;;;23.15;nan
51829;BME280;37881;48.024;8.774;2022-10-16T11:55:31;94140.94;;;22.68;nan
51829;BME280;37881;48.024;8.774;2022-10-16T12:03:40;94131.81;;;22.53;nan
51829;BME280;37881;48.024;8.774;2022-10-16T12:06:17;94137.06;;;22.10;nan
51829;BME280;37881;48.024;8.774;2022-10-16T12:08:51;94129.31;;;22.20;nan
51829;BME280;37881;48.024;8.774;2022-10-16T12:17:34;94123.50;;;22.38;nan
51829;BME280;37881;48.024;8.774;2022-10-16T12:22:47;94132.88;;;22.20;nan
51829;BME280;37881;48.024;8.774;2022-10-16T12:28:15;94130.56;;;21.68;nan
51829;BME280;37881;48.024;8.774;2022-10-16T12:30:52;94128.06;;;21.85;nan
51829;BME280;37881;48.024;8.774;2022-10-16T12:33:26;94127.00;;;21.53;nan
51829;BME280;37881;48.024;8.774;2022-10-16T12:35:54;94127.41;;;21.61;nan
51829;BME280;37881;48.024;8.774;2022-10-16T12:38:26;94128.16;;;21.76;nan
51829;BME280;37881;48.024;8.774;2022-10-16T12:41:08;94120.53;;;21.77;nan
51829;BME280;37881;48.024;8.774;2022-10-16T12:43:42;94122.38;;;21.80;nan
51829;BME280;37881;48.024;8.774;2022-10-16T12:48:40;94126.03;;;21.71;nan
51829;BME280;37881;48.024;8.774;2022-10-16T12:54:15;94132.75;;;21.94;nan
51829;BME280;37881;48.024;8.774;2022-10-16T13:00:13;94128.97;;;21.97;nan
51829;BME280;37881;48.024;8.774;2022-10-16T13:13:46;94139.63;;;22.28;nan
51829;BME280;37881;48.024;8.774;2022-10-16T13:30:15;94139.31;;;21.91;nan
51829;BME280;37881;48.024;8.774;2022-10-16T13:32:51;94138.75;;;21.72;nan
51829;BME280;37881;48.024;8.774;2022-10-16T13:35:26;94140.69;;;21.51;nan
51829;BME280;37881;48.024;8.774;2022-10-16T13:38:16;94139.22;;;21.41;nan
51829;BME280;37881;48.024;8.774;2022-10-16T13:41:12;94144.56;;;21.53;nan
51829;BME280;37881;48.024;8.774;2022-10-16T13:43:42;94135.66;;;21.85;nan
51829;BME280;37881;48.024;8.774;2022-10-16T13:46:15;94130.69;;;21.59;nan
51829;BME280;37881;48.024;8.774;2022-10-16T13:48:43;94136.72;;;21.72;nan
51829;BME280;37881;48.024;8.774;2022-10-16T13:51:18;94132.97;;;21.61;nan
51829;BME280;37881;48.024;8.774;2022-10-16T13:53:45;94138.09;;;21.47;nan
51829;BME280;37881;48.024;8.774;2022-10-16T13:56:18;94129.91;;;21.29;nan
51829;BME280;37881;48.024;8.774;2022-10-16T13:58:46;94136.06;;;21.33;nan
51829;BME280;37881;48.024;8.774;2022-10-16T14:01:32;94129.22;;;21.49;nan
51829;BME280;37881;48.024;8.774;2022-10-16T14:04:09;94135.34;;;21.08;nan
51829;BME280;37881;48.024;8.774;2022-10-16T14:06:40;94138.75;;;21.42;nan
51829;BME280;37881;48.024;8.774;2022-10-16T14:11:53;94132.25;;;21.06;nan
51829;BME280;37881;48.024;8.774;2022-10-16T14:14:22;94139.72;;;21.39;nan
51829;BME280;37881;48.024;8.774;2022-10-16T14:16:49;94138.84;;;21.63;nan
51829;BME280;37881;48.024;8.774;2022-10-16T14:19:27;94136.56;;;21.46;nan
51829;BME280;37881;48.024;8.774;2022-10-16T14:21:56;94135.94;;;21.42;nan
51829;BME280;37881;48.024;8.774;2022-10-16T14:26:56;94140.38;;;21.19;nan
51829;BME280;37881;48.024;8.774;2022-10-16T14:29:25;94140.09;;;21.32;nan
51829;BME280;37881;48.024;8.774;2022-10-16T14:32:00;94139.88;;;21.21;nan
51829;BME280;37881;48.024;8.774;2022-10-16T14:37:01;94143.41;;;20.91;nan
51829;BME280;37881;48.024;8.774;2022-10-16T14:39:39;94147.66;;;21.02;nan
51829;BME280;37881;48.024;8.774;2022-10-16T14:42:14;94144.94;;;20.92;nan
51829;BME280;37881;48.024;8.774;2022-10-16T14:44:43;94155.00;;;20.75;nan
51829;BME280;37881;48.024;8.774;2022-10-16T14:47:13;94150.75;;;20.65;nan
51829;BME280;37881;48.024;8.774;2022-10-16T14:49:42;94158.41;;;20.46;nan
51829;BME280;37881;48.024;8.774;2022-10-16T14:52:12;94154.22;;;20.50;nan
51829;BME280;37881;48.024;8.774;2022-10-16T14:54:40;94155.63;;;20.46;nan
51829;BME280;37881;48.024;8.774;2022-10-16T14:57:26;94150.34;;;20.48;nan
51829;BME280;37881;48.024;8.774;2022-10-16T14:59:54;94159.25;;;20.37;nan
51829;BME280;37881;48.024;8.774;2022-10-16T15:02:42;94160.38;;;20.54;nan
51829;BME280;37881;48.024;8.774;2022-10-16T15:07:41;94162.34;;;20.39;nan
51829;BME280;37881;48.024;8.774;2022-10-16T15:10:09;94164.94;;;20.43;nan
51829;BME280;37881;48.024;8.774;2022-10-16T15:12:36;94163.91;;;20.07;nan
51829;BME280;37881;48.024;8.774;2022-10-16T15:17:45;94173.13;;;19.80;nan
51829;BME280;37881;48.024;8.774;2022-10-16T15:20:12;94168.97;;;19.66;nan
51829;BME280;37881;48.024;8.774;2022-10-16T15:22:39;94179.19;;;19.60;nan
51829;BME280;37881;48.024;8.774;2022-10-16T15:25:27;94175.94;;;19.61;nan
51829;BME280;37881;48.024;8.774;2022-10-16T15:27:55;94172.75;;;19.44;nan
51829;BME280;37881;48.024;8.774;2022-10-16T15:30:22;94174.81;;;19.16;nan
51829;BME280;37881;48.024;8.774;2022-10-16T15:32:49;94177.44;;;19.10;nan
51829;BME280;37881;48.024;8.774;2022-10-16T15:35:16;94168.63;;;19.03;nan
51829;BME280;37881;48.024;8.774;2022-10-16T15:37:42;94176.97;;;19.03;nan
51829;BME280;37881;48.024;8.774;2022-10-16T15:40:10;94175.59;;;18.80;nan